createdAt,value
2022-10-17T00:01:53.830Z,1.27
2022-10-17T00:04:20.079Z,1.60
2022-10-17T00:06:46.339Z,1.65
2022-10-17T00:09:12.552Z,1.67
2022-10-17T00:11:39.299Z,1.63
2022-10-17T00:14:05.575Z,1.60
2022-10-17T00:16:34.189Z,1.92
2022-10-17T00:19:00.525Z,1.73
2022-10-17T00:21:26.780Z,1.75
2022-10-17T00:23:53.343Z,1.73
2022-10-17T00:26:20.752Z,1.75
2022-10-17T00:28:47.864Z,1.40
2022-10-17T00:31:14.657Z,1.50
2022-10-17T00:33:40.957Z,1.73
2022-10-17T00:36:17.423Z,1.40
2022-10-17T00:38:45.051Z,1.52
2022-10-17T00:41:12.466Z,1.20
2022-10-17T00:43:52.131Z,1.70
2022-10-17T00:46:18.603Z,1.33
2022-10-17T00:48:45.243Z,1.50
2022-10-17T00:51:11.476Z,1.40
2022-10-17T00:53:39.000Z,1.48
2022-10-17T00:56:05.569Z,1.40
2022-10-17T00:58:31.895Z,1.30
2022-10-17T01:00:58.116Z,1.65
2022-10-17T01:03:24.390Z,1.38
2022-10-17T01:05:50.607Z,1.52
2022-10-17T01:08:16.863Z,1.58
2022-10-17T01:11:01.986Z,1.67
2022-10-17T01:13:33.889Z,1.48
2022-10-17T01:16:09.746Z,1.35
2022-10-17T01:18:41.711Z,1.52
2022-10-17T01:21:18.255Z,1.45
2022-10-17T01:23:59.746Z,1.38
2022-10-17T01:26:37.373Z,1.38
2022-10-17T01:29:12.807Z,1.40
2022-10-17T01:31:46.372Z,1.13
2022-10-17T01:34:18.751Z,1.30
2022-10-17T01:36:50.839Z,1.52
2022-10-17T01:39:24.995Z,1.40
2022-10-17T01:41:59.719Z,1.70
2022-10-17T01:44:39.149Z,1.30
2022-10-17T01:47:07.483Z,1.30
2022-10-17T01:49:34.305Z,1.65
2022-10-17T01:52:08.683Z,1.30
2022-10-17T01:54:43.683Z,1.50
2022-10-17T01:57:13.462Z,1.30
2022-10-17T01:59:40.943Z,1.45
2022-10-17T02:02:08.381Z,1.30
2022-10-17T02:04:35.230Z,1.02
2022-10-17T02:07:08.236Z,1.60
2022-10-17T02:09:35.883Z,1.23
2022-10-17T02:12:20.539Z,1.20
2022-10-17T02:14:46.721Z,1.25
2022-10-17T02:17:31.117Z,1.23
2022-10-17T02:20:16.294Z,1.38
2022-10-17T02:22:45.510Z,1.08
2022-10-17T02:25:11.685Z,1.15
2022-10-17T02:27:43.865Z,1.60
2022-10-17T02:30:10.093Z,1.40
2022-10-17T02:32:36.325Z,1.40
2022-10-17T02:35:03.676Z,1.10
2022-10-17T02:37:31.333Z,1.15
2022-10-17T02:39:59.090Z,1.35
2022-10-17T02:42:26.343Z,1.20
2022-10-17T02:44:53.722Z,1.50
2022-10-17T02:47:31.776Z,1.17
2022-10-17T02:50:01.182Z,1.42
2022-10-17T02:52:46.003Z,1.33
2022-10-17T02:55:16.507Z,1.33
2022-10-17T02:57:50.648Z,1.30
2022-10-17T03:00:17.752Z,1.27
2022-10-17T03:02:45.241Z,1.52
2022-10-17T03:05:12.838Z,1.50
2022-10-17T03:07:39.281Z,1.60
2022-10-17T03:10:06.539Z,1.30
2022-10-17T03:12:32.758Z,1.30
2022-10-17T03:14:59.003Z,1.30
2022-10-17T03:17:25.281Z,1.50
2022-10-17T03:19:51.548Z,1.60
2022-10-17T03:22:17.775Z,1.77
2022-10-17T03:24:43.999Z,1.33
2022-10-17T03:27:10.383Z,1.40
2022-10-17T03:29:36.716Z,1.35
2022-10-17T03:32:03.036Z,1.63
2022-10-17T03:34:29.242Z,1.38
2022-10-17T03:36:55.524Z,1.98
2022-10-17T03:39:21.738Z,1.50
2022-10-17T03:41:47.955Z,1.27
2022-10-17T03:44:14.224Z,1.50
2022-10-17T03:46:40.432Z,1.48
2022-10-17T03:49:06.690Z,1.45
2022-10-17T03:51:33.344Z,1.55
2022-10-17T03:53:59.557Z,1.80
2022-10-17T03:56:26.257Z,1.35
2022-10-17T03:58:52.561Z,1.63
2022-10-17T04:01:19.333Z,1.60
2022-10-17T04:03:48.921Z,1.48
2022-10-17T04:06:15.162Z,1.75
2022-10-17T04:08:42.656Z,1.80
2022-10-17T04:11:10.612Z,1.40
2022-10-17T04:13:36.877Z,1.60
2022-10-17T04:16:05.672Z,1.40
2022-10-17T04:18:32.479Z,1.55
2022-10-17T04:21:00.889Z,1.52
2022-10-17T04:23:27.133Z,1.77
2022-10-17T04:25:56.819Z,1.63
2022-10-17T04:28:23.305Z,1.20
2022-10-17T04:30:55.787Z,1.75
2022-10-17T04:33:21.996Z,1.65
2022-10-17T04:36:08.497Z,1.90
2022-10-17T04:38:34.735Z,1.90
2022-10-17T04:41:04.545Z,1.98
2022-10-17T04:43:31.494Z,1.35
2022-10-17T04:45:58.441Z,1.77
2022-10-17T04:48:24.659Z,1.60
2022-10-17T04:50:54.515Z,1.52
2022-10-17T04:53:20.954Z,2.08
2022-10-17T04:55:47.171Z,1.98
2022-10-17T04:58:13.374Z,1.70
2022-10-17T05:00:39.788Z,1.90
2022-10-17T05:03:06.038Z,1.60
2022-10-17T05:05:32.304Z,1.90
2022-10-17T05:07:58.546Z,1.80
2022-10-17T05:10:24.819Z,1.80
2022-10-17T05:12:51.113Z,1.85
2022-10-17T05:15:17.320Z,1.77
2022-10-17T05:17:43.530Z,1.67
2022-10-17T05:20:10.135Z,1.77
2022-10-17T05:22:39.639Z,1.80
2022-10-17T05:25:08.398Z,1.80
2022-10-17T05:27:34.599Z,1.88
2022-10-17T05:30:00.799Z,2.00
2022-10-17T05:32:27.237Z,1.80
2022-10-17T05:34:53.705Z,2.10
2022-10-17T05:37:19.969Z,2.05
2022-10-17T05:39:50.635Z,1.70
2022-10-17T05:42:17.940Z,2.13
2022-10-17T05:44:44.259Z,1.67
2022-10-17T05:47:10.468Z,1.58
2022-10-17T05:49:49.777Z,2.20
2022-10-17T05:52:17.600Z,2.10
2022-10-17T05:54:43.806Z,2.00
2022-10-17T05:57:10.272Z,1.73
2022-10-17T05:59:36.482Z,1.98
2022-10-17T06:02:02.761Z,1.90
2022-10-17T06:04:29.052Z,1.98
2022-10-17T06:06:56.187Z,2.00
2022-10-17T06:09:22.854Z,2.03
2022-10-17T06:11:49.102Z,1.70
2022-10-17T06:14:15.422Z,1.70
2022-10-17T06:16:43.321Z,2.08
2022-10-17T06:19:11.398Z,2.10
2022-10-17T06:21:38.739Z,2.10
2022-10-17T06:24:05.166Z,2.10
2022-10-17T06:26:31.420Z,2.50
2022-10-17T06:28:57.657Z,1.80
2022-10-17T06:31:23.903Z,2.15
2022-10-17T06:33:50.103Z,2.15
2022-10-17T06:36:16.358Z,2.17
2022-10-17T06:38:42.727Z,2.00
2022-10-17T06:41:16.235Z,2.10
2022-10-17T06:43:43.443Z,2.00
2022-10-17T06:46:09.873Z,2.35
2022-10-17T06:48:36.169Z,1.92
2022-10-17T06:51:04.403Z,1.77
2022-10-17T06:53:32.135Z,1.73
2022-10-17T06:56:02.840Z,1.70
2022-10-17T06:58:30.048Z,1.75
2022-10-17T07:01:03.475Z,2.03
2022-10-17T07:03:30.123Z,2.13
2022-10-17T07:05:56.955Z,1.80
2022-10-17T07:08:23.277Z,1.70
2022-10-17T07:10:49.794Z,1.98
2022-10-17T07:13:16.038Z,2.00
2022-10-17T07:15:42.262Z,2.20
2022-10-17T07:18:08.514Z,2.00
2022-10-17T07:20:35.091Z,1.88
2022-10-17T07:23:01.358Z,2.63
2022-10-17T07:25:28.349Z,2.20
2022-10-17T07:27:54.650Z,1.85
2022-10-17T07:30:21.449Z,2.00
2022-10-17T07:32:47.774Z,2.00
2022-10-17T07:35:14.565Z,1.90
2022-10-17T07:37:41.027Z,2.20
2022-10-17T07:40:07.943Z,2.10
2022-10-17T07:42:36.466Z,2.80
2022-10-17T07:45:02.978Z,2.50
2022-10-17T07:47:31.427Z,2.58
2022-10-17T07:49:58.215Z,3.08
2022-10-17T07:52:24.463Z,3.60
2022-10-17T07:54:50.668Z,3.03
2022-10-17T07:57:16.914Z,3.20
2022-10-17T07:59:43.142Z,3.20
2022-10-17T08:02:14.072Z,3.22
2022-10-17T08:04:40.293Z,3.53
2022-10-17T08:07:19.659Z,3.83
2022-10-17T08:09:46.546Z,3.90
2022-10-17T08:12:14.586Z,3.03
2022-10-17T08:14:43.838Z,2.95
2022-10-17T08:17:10.190Z,2.70
2022-10-17T08:19:40.311Z,3.25
2022-10-17T08:22:07.015Z,2.83
2022-10-17T08:24:33.250Z,3.17
2022-10-17T08:27:00.593Z,2.97
2022-10-17T08:29:27.219Z,2.78
2022-10-17T08:31:58.538Z,2.65
2022-10-17T08:34:27.770Z,2.78
2022-10-17T08:36:54.043Z,3.15
2022-10-17T08:39:20.286Z,2.85
2022-10-17T08:41:54.006Z,2.88
2022-10-17T08:44:25.552Z,2.88
2022-10-17T08:46:53.658Z,2.45
2022-10-17T08:49:27.523Z,2.83
2022-10-17T08:51:57.481Z,2.50
2022-10-17T08:54:31.256Z,3.00
2022-10-17T08:56:57.727Z,2.50
2022-10-17T08:59:26.548Z,2.72
2022-10-17T09:01:58.548Z,2.60
2022-10-17T09:04:43.400Z,2.70
2022-10-17T09:07:09.607Z,2.78
2022-10-17T09:09:54.402Z,2.45
2022-10-17T09:12:24.486Z,2.50
2022-10-17T09:14:57.722Z,2.65
2022-10-17T09:17:24.108Z,2.42
2022-10-17T09:19:50.339Z,2.88
2022-10-17T09:22:21.375Z,2.53
2022-10-17T09:24:50.627Z,2.85
2022-10-17T09:27:30.765Z,2.47
2022-10-17T09:30:26.875Z,2.50
2022-10-17T09:33:10.843Z,2.13
2022-10-17T09:35:41.908Z,2.75
2022-10-17T09:38:18.695Z,2.45
2022-10-17T09:40:46.108Z,2.97
2022-10-17T09:43:15.047Z,2.60
2022-10-17T09:45:47.008Z,2.67
2022-10-17T09:48:23.027Z,2.60
2022-10-17T09:50:57.828Z,2.90
2022-10-17T09:53:36.530Z,2.70
2022-10-17T09:56:03.664Z,2.80
2022-10-17T09:58:44.969Z,2.50
2022-10-17T10:01:25.754Z,2.47
2022-10-17T10:04:08.931Z,2.85
2022-10-17T10:06:35.552Z,2.50
2022-10-17T10:09:05.779Z,2.70
2022-10-17T10:14:10.854Z,2.45
2022-10-17T10:16:41.629Z,2.97
2022-10-17T10:19:20.147Z,2.70
2022-10-17T10:22:05.394Z,2.28
2022-10-17T10:24:32.096Z,2.55
2022-10-17T10:27:12.759Z,2.40
2022-10-17T10:29:43.187Z,2.38
2022-10-17T10:32:12.257Z,2.30
2022-10-17T10:34:49.451Z,1.88
2022-10-17T10:37:23.480Z,1.95
2022-10-17T10:39:55.713Z,1.73
2022-10-17T10:42:27.456Z,2.00
2022-10-17T10:44:54.803Z,1.77
2022-10-17T10:47:28.819Z,1.90
2022-10-17T10:50:27.592Z,2.00
2022-10-17T10:52:53.782Z,1.77
2022-10-17T10:55:19.989Z,1.73
2022-10-17T10:57:46.943Z,1.67
2022-10-17T11:00:16.250Z,1.65
2022-10-17T11:02:53.748Z,2.05
2022-10-17T11:05:23.579Z,1.63
2022-10-17T11:07:56.071Z,1.70
2022-10-17T11:10:25.227Z,1.67
2022-10-17T11:13:14.726Z,1.95
2022-10-17T11:15:45.723Z,1.97
2022-10-17T11:18:16.207Z,1.70
2022-10-17T11:20:47.517Z,1.83
2022-10-17T11:23:21.324Z,1.80
2022-10-17T11:25:49.188Z,1.52
2022-10-17T11:28:17.072Z,1.58
2022-10-17T11:30:55.964Z,1.67
2022-10-17T11:33:25.349Z,1.52
2022-10-17T11:35:52.802Z,1.43
2022-10-17T11:38:21.938Z,1.83
2022-10-17T11:40:50.242Z,1.75
2022-10-17T11:43:19.873Z,1.88
2022-10-17T11:45:48.489Z,1.55
2022-10-17T11:48:21.270Z,1.80
2022-10-17T11:54:02.003Z,1.13
2022-10-17T11:56:46.756Z,1.45
2022-10-17T11:59:31.350Z,1.40
2022-10-17T12:02:01.480Z,1.52
2022-10-17T12:04:36.638Z,1.50
2022-10-17T12:07:09.260Z,1.48
2022-10-17T12:09:43.138Z,1.10
2022-10-17T12:12:09.439Z,1.50
2022-10-17T12:14:45.624Z,1.50
2022-10-17T12:17:32.402Z,1.30
2022-10-17T12:20:17.662Z,1.60
2022-10-17T12:22:50.611Z,1.30
2022-10-17T12:25:21.455Z,1.33
2022-10-17T12:27:48.304Z,1.52
2022-10-17T12:30:22.179Z,1.80
2022-10-17T12:33:05.617Z,1.33
2022-10-17T12:35:33.342Z,1.80
2022-10-17T12:38:00.950Z,1.52
2022-10-17T12:40:36.189Z,1.38
2022-10-17T12:43:22.346Z,1.13
2022-10-17T12:45:48.601Z,1.50
2022-10-17T12:48:33.117Z,1.30
2022-10-17T12:53:48.416Z,1.10
2022-10-17T12:56:16.020Z,1.23
2022-10-17T12:58:44.570Z,1.10
2022-10-17T13:01:24.238Z,1.50
2022-10-17T13:06:22.595Z,1.15
2022-10-17T13:08:54.853Z,1.50
2022-10-17T13:11:23.948Z,1.30
2022-10-17T13:13:52.291Z,1.50
2022-10-17T13:16:30.646Z,1.30
2022-10-17T13:18:58.021Z,1.10
2022-10-17T13:21:24.320Z,1.10
2022-10-17T13:23:52.957Z,1.52
2022-10-17T13:26:21.038Z,1.58
2022-10-17T13:29:00.723Z,1.35
2022-10-17T13:31:34.204Z,1.45
2022-10-17T13:34:01.967Z,1.73
2022-10-17T13:36:28.919Z,1.20
2022-10-17T13:38:55.207Z,1.17
2022-10-17T13:41:35.424Z,1.35
2022-10-17T13:44:04.508Z,1.20
2022-10-17T13:46:37.911Z,1.40
2022-10-17T13:49:16.833Z,1.30
2022-10-17T13:51:44.448Z,1.58
2022-10-17T13:54:25.827Z,1.80
2022-10-17T13:56:58.694Z,1.60
2022-10-17T13:59:26.795Z,1.65
2022-10-17T14:01:54.891Z,1.90
2022-10-17T14:04:21.175Z,1.77
2022-10-17T14:06:49.606Z,1.60
2022-10-17T14:09:23.282Z,1.90
2022-10-17T14:12:01.615Z,1.95
2022-10-17T14:14:29.102Z,1.60
2022-10-17T14:16:56.603Z,1.58
2022-10-17T14:19:25.748Z,1.90
2022-10-17T14:21:56.834Z,1.50
2022-10-17T14:24:23.022Z,2.05
2022-10-17T14:26:50.582Z,2.33
2022-10-17T14:29:25.815Z,1.90
2022-10-17T14:32:02.662Z,2.10
2022-10-17T14:34:30.890Z,1.60
2022-10-17T14:36:57.267Z,2.38
2022-10-17T14:39:24.924Z,2.97
2022-10-17T14:41:51.499Z,2.30
2022-10-17T14:44:21.536Z,2.00
2022-10-17T14:46:50.976Z,2.63
2022-10-17T14:49:24.313Z,2.80
2022-10-17T14:52:11.429Z,2.03
2022-10-17T14:54:39.937Z,1.83
2022-10-17T14:57:14.543Z,2.17
2022-10-17T14:59:53.913Z,2.20
2022-10-17T15:02:21.404Z,1.77
2022-10-17T15:04:47.656Z,2.13
2022-10-17T15:07:15.431Z,1.95
2022-10-17T15:09:42.114Z,2.33
2022-10-17T15:12:12.842Z,1.98
2022-10-17T15:14:39.056Z,2.30
2022-10-17T15:17:10.180Z,2.13
2022-10-17T15:19:36.400Z,2.20
2022-10-17T15:22:02.733Z,1.95
2022-10-17T15:24:28.935Z,1.88
2022-10-17T15:26:56.428Z,1.85
2022-10-17T15:29:22.657Z,1.77
2022-10-17T15:31:48.915Z,2.25
2022-10-17T15:34:15.118Z,2.33
2022-10-17T15:36:42.162Z,2.10
2022-10-17T15:39:09.570Z,2.22
2022-10-17T15:41:35.787Z,2.17
2022-10-17T15:44:02.044Z,2.03
2022-10-17T15:46:33.074Z,2.22
2022-10-17T15:49:04.074Z,2.08
2022-10-17T15:51:30.321Z,2.38
2022-10-17T15:53:56.552Z,2.30
2022-10-17T15:56:24.987Z,2.03
2022-10-17T15:58:51.210Z,2.17
2022-10-17T16:01:20.305Z,2.40
2022-10-17T16:03:48.773Z,2.30
2022-10-17T16:06:15.004Z,2.08
2022-10-17T16:08:41.276Z,2.42
2022-10-17T16:11:10.023Z,2.13
2022-10-17T16:13:36.348Z,2.22
2022-10-17T16:16:02.564Z,2.28
2022-10-17T16:18:28.776Z,1.88
2022-10-17T16:20:55.079Z,1.83
2022-10-17T16:23:21.339Z,2.00
2022-10-17T16:25:47.567Z,2.15
2022-10-17T16:28:13.796Z,2.72
2022-10-17T16:30:42.447Z,2.40
2022-10-17T16:33:10.288Z,2.55
2022-10-17T16:35:37.570Z,2.13
2022-10-17T16:38:04.902Z,2.45
2022-10-17T16:40:31.197Z,2.15
2022-10-17T16:42:57.443Z,2.33
2022-10-17T16:45:23.739Z,2.40
2022-10-17T16:47:50.503Z,2.10
2022-10-17T16:50:16.795Z,1.98
2022-10-17T16:52:43.013Z,2.33
2022-10-17T16:55:09.873Z,2.10
2022-10-17T16:57:36.308Z,2.17
2022-10-17T17:00:03.678Z,2.17
2022-10-17T17:02:30.189Z,1.83
2022-10-17T17:04:56.551Z,2.10
2022-10-17T17:07:24.285Z,2.22
2022-10-17T17:09:50.714Z,2.53
2022-10-17T17:12:16.945Z,2.30
2022-10-17T17:14:43.239Z,2.33
2022-10-17T17:17:15.414Z,2.30
2022-10-17T17:19:50.812Z,2.40
2022-10-17T17:22:17.080Z,3.05
2022-10-17T17:24:43.327Z,3.30
2022-10-17T17:27:12.712Z,3.60
2022-10-17T17:32:05.960Z,3.40
2022-10-17T17:34:35.265Z,3.20
2022-10-17T17:37:01.494Z,3.65
2022-10-17T17:39:27.756Z,17.50
2022-10-17T17:41:54.007Z,6.00
2022-10-17T17:44:20.214Z,4.78
2022-10-17T17:46:46.553Z,4.28
2022-10-17T17:49:12.759Z,4.50
2022-10-17T17:51:41.312Z,3.47
2022-10-17T17:54:11.326Z,3.33
2022-10-17T17:56:38.028Z,3.72
2022-10-17T17:59:04.374Z,4.07
2022-10-17T18:01:31.841Z,3.90
2022-10-17T18:03:58.966Z,3.45
2022-10-17T18:06:25.679Z,4.22
2022-10-17T18:08:53.207Z,3.65
2022-10-17T18:11:21.892Z,3.85
2022-10-17T18:13:52.824Z,3.17
2022-10-17T18:16:19.051Z,3.30
2022-10-17T18:18:45.290Z,3.42
2022-10-17T18:21:12.896Z,3.13
2022-10-17T18:23:39.703Z,3.88
2022-10-17T18:26:06.103Z,2.70
2022-10-17T18:28:36.109Z,3.45
2022-10-17T18:31:09.471Z,2.95
2022-10-17T18:33:35.782Z,2.92
2022-10-17T18:36:06.099Z,2.78
2022-10-17T18:38:33.297Z,3.10
2022-10-17T18:41:06.652Z,2.67
2022-10-17T18:43:36.498Z,3.17
2022-10-17T18:46:04.608Z,2.88
2022-10-17T18:48:31.647Z,2.50
2022-10-17T18:50:57.899Z,2.78
2022-10-17T18:53:24.159Z,2.55
2022-10-17T18:55:50.790Z,2.80
2022-10-17T18:58:19.259Z,2.70
2022-10-17T19:00:45.724Z,2.75
2022-10-17T19:03:12.095Z,2.92
2022-10-17T19:05:38.764Z,2.95
2022-10-17T19:08:05.080Z,2.90
2022-10-17T19:10:34.248Z,2.85
2022-10-17T19:13:01.128Z,2.75
2022-10-17T19:15:27.398Z,2.80
2022-10-17T19:17:53.611Z,2.70
2022-10-17T19:20:19.948Z,2.78
2022-10-17T19:22:46.202Z,2.88
2022-10-17T19:25:12.798Z,3.22
2022-10-17T19:27:39.331Z,2.33
2022-10-17T19:30:05.835Z,2.45
2022-10-17T19:32:32.952Z,3.13
2022-10-17T19:34:59.388Z,3.10
2022-10-17T19:37:25.616Z,31.45
2022-10-17T19:39:51.835Z,26.30
2022-10-17T19:42:18.112Z,28.90
2022-10-17T19:44:44.328Z,24.95
2022-10-17T19:47:10.601Z,19.75
2022-10-17T19:49:36.894Z,14.20
2022-10-17T19:52:03.198Z,11.30
2022-10-17T19:54:29.474Z,9.23
2022-10-17T19:56:55.691Z,7.53
2022-10-17T19:59:22.407Z,6.82
2022-10-17T20:01:48.683Z,5.25
2022-10-17T20:04:14.932Z,5.40
2022-10-17T20:06:41.431Z,5.22
2022-10-17T20:09:09.895Z,4.63
2022-10-17T20:11:38.720Z,4.72
2022-10-17T20:14:05.804Z,4.05
2022-10-17T20:16:33.154Z,3.92
2022-10-17T20:19:04.471Z,4.03
2022-10-17T20:21:37.052Z,3.75
2022-10-17T20:24:04.661Z,3.67
2022-10-17T20:26:38.004Z,3.78
2022-10-17T20:29:08.753Z,4.00
2022-10-17T20:31:35.160Z,3.28
2022-10-17T20:34:01.389Z,4.15
2022-10-17T20:36:27.636Z,3.08
2022-10-17T20:38:54.991Z,3.83
2022-10-17T20:41:21.450Z,3.42
2022-10-17T20:43:49.640Z,3.33
2022-10-17T20:46:29.348Z,3.13
2022-10-17T20:49:01.629Z,3.35
2022-10-17T20:51:28.006Z,3.08
2022-10-17T20:53:54.313Z,2.78
2022-10-17T20:56:25.066Z,4.88
2022-10-17T20:58:52.342Z,11.07
2022-10-17T21:01:18.802Z,14.40
2022-10-17T21:03:46.624Z,13.20
2022-10-17T21:06:13.514Z,14.18
2022-10-17T21:08:39.984Z,13.13
2022-10-17T21:11:09.122Z,12.00
2022-10-17T21:13:35.357Z,12.30
2022-10-17T21:16:05.748Z,12.32
2022-10-17T21:18:31.960Z,11.27
2022-10-17T21:21:06.195Z,11.35
2022-10-17T21:23:32.413Z,10.80
2022-10-17T21:26:01.530Z,10.43
2022-10-17T21:28:27.783Z,9.15
2022-10-17T21:30:54.096Z,8.18
2022-10-17T21:33:20.289Z,8.10
2022-10-17T21:35:46.507Z,7.70
2022-10-17T21:38:12.739Z,8.43
2022-10-17T21:40:38.963Z,7.10
2022-10-17T21:43:05.177Z,7.20
2022-10-17T21:45:31.479Z,7.00
2022-10-17T21:48:13.584Z,6.72
2022-10-17T21:50:41.295Z,6.95
2022-10-17T21:53:07.506Z,6.15
2022-10-17T21:55:35.769Z,6.00
2022-10-17T21:58:01.983Z,5.82
2022-10-17T22:00:28.211Z,6.20
2022-10-17T22:02:54.472Z,5.85
2022-10-17T22:05:20.747Z,5.00
2022-10-17T22:07:47.427Z,4.53
2022-10-17T22:10:13.683Z,5.30
2022-10-17T22:12:39.890Z,5.63
2022-10-17T22:15:06.446Z,5.00
2022-10-17T22:17:32.821Z,5.78
2022-10-17T22:19:59.144Z,4.25
2022-10-17T22:22:25.355Z,4.65
2022-10-17T22:24:51.546Z,4.38
2022-10-17T22:27:17.752Z,4.10
2022-10-17T22:29:43.963Z,4.18
2022-10-17T22:32:10.180Z,4.20
2022-10-17T22:34:36.415Z,4.07
2022-10-17T22:37:02.627Z,4.40
2022-10-17T22:39:28.830Z,3.88
2022-10-17T22:41:55.063Z,4.38
2022-10-17T22:44:21.271Z,4.28
2022-10-17T22:46:47.585Z,3.83
2022-10-17T22:49:13.899Z,3.80
2022-10-17T22:51:40.114Z,4.50
2022-10-17T22:54:06.801Z,3.78
2022-10-17T22:56:33.033Z,3.55
2022-10-17T22:58:59.245Z,4.28
2022-10-17T23:01:25.592Z,4.13
2022-10-17T23:03:52.454Z,4.03
2022-10-17T23:06:19.435Z,3.20
2022-10-17T23:08:45.707Z,3.58
2022-10-17T23:11:12.015Z,3.38
2022-10-17T23:13:39.660Z,4.13
2022-10-17T23:16:06.295Z,3.30
2022-10-17T23:18:32.542Z,3.05
2022-10-17T23:20:58.826Z,3.30
2022-10-17T23:23:25.359Z,3.72
2022-10-17T23:25:51.635Z,3.40
2022-10-17T23:28:17.969Z,3.50
2022-10-17T23:30:44.233Z,3.63
2022-10-17T23:33:11.182Z,3.53
2022-10-17T23:35:37.446Z,3.67
2022-10-17T23:38:03.703Z,3.35
2022-10-17T23:40:29.917Z,3.17
2022-10-17T23:42:56.137Z,3.42
2022-10-17T23:45:22.420Z,3.20
2022-10-17T23:47:48.690Z,2.97
2022-10-17T23:50:15.051Z,3.38
2022-10-17T23:52:41.264Z,4.65
2022-10-17T23:55:07.930Z,4.43
2022-10-17T23:57:34.505Z,4.00
